sensor_id;sensor_type;location;lat;lon;timestamp;pressure;altitude;pressure_sealevel;temperature;humidity
14757;BME280;62446;53.214;10.398;2022-12-18T15:04:59;102653.97;;;-6.50;81.38
14757;BME280;62446;53.214;10.398;2022-12-18T15:08:30;102649.41;;;-6.31;79.17
14757;BME280;62446;53.214;10.398;2022-12-18T15:11:44;102648.84;;;-6.38;79.07
14757;BME280;62446;53.214;10.398;2022-12-18T15:14:48;102641.88;;;-6.42;79.57
14757;BME280;62446;53.214;10.398;2022-12-18T15:17:57;102642.66;;;-6.57;79.32
14757;BME280;62446;53.214;10.398;2022-12-18T15:21:11;102627.25;;;-6.53;79.46
14757;BME280;62446;53.214;10.398;2022-12-18T15:24:26;102617.88;;;-6.45;78.60
14757;BME280;62446;53.214;10.398;2022-12-18T15:27:31;102607.13;;;-6.45;78.84
14757;BME280;62446;53.214;10.398;2022-12-18T15:30:38;102602.06;;;-6.51;79.16
14757;BME280;62446;53.214;10.398;2022-12-18T15:33:43;102609.28;;;-6.34;79.13
14757;BME280;62446;53.214;10.398;2022-12-18T15:36:51;102603.59;;;-6.45;79.44
14757;BME280;62446;53.214;10.398;2022-12-18T15:39:55;102604.16;;;-6.39;78.24
14757;BME280;62446;53.214;10.398;2022-12-18T15:42:59;102600.50;;;-6.38;78.85
14757;BME280;62446;53.214;10.398;2022-12-18T15:46:22;102610.06;;;-6.32;78.32
14757;BME280;62446;53.214;10.398;2022-12-18T15:49:27;102594.03;;;-6.51;79.39
14757;BME280;62446;53.214;10.398;2022-12-18T15:52:39;102590.94;;;-6.43;78.83
14757;BME280;62446;53.214;10.398;2022-12-18T15:55:44;102588.34;;;-6.45;78.86
14757;BME280;62446;53.214;10.398;2022-12-18T15:59:09;102574.78;;;-6.24;77.82
14757;BME280;62446;53.214;10.398;2022-12-18T16:02:17;102581.72;;;-6.20;77.38
14757;BME280;62446;53.214;10.398;2022-12-18T16:05:21;102571.03;;;-6.57;79.43
14757;BME280;62446;53.214;10.398;2022-12-18T16:08:28;102576.84;;;-6.12;77.73
14757;BME280;62446;53.214;10.398;2022-12-18T16:11:34;102570.53;;;-6.11;77.29
14757;BME280;62446;53.214;10.398;2022-12-18T16:14:45;102569.47;;;-6.08;77.15
14757;BME280;62446;53.214;10.398;2022-12-18T16:17:50;102576.38;;;-6.20;77.35
14757;BME280;62446;53.214;10.398;2022-12-18T16:20:55;102571.63;;;-6.15;77.04
14757;BME280;62446;53.214;10.398;2022-12-18T16:24:00;102566.09;;;-6.29;77.40
14757;BME280;62446;53.214;10.398;2022-12-18T16:27:04;102548.47;;;-6.00;76.30
14757;BME280;62446;53.214;10.398;2022-12-18T16:30:12;102558.38;;;-6.18;76.69
14757;BME280;62446;53.214;10.398;2022-12-18T16:33:16;102552.81;;;-5.97;75.89
14757;BME280;62446;53.214;10.398;2022-12-18T16:36:20;102544.44;;;-6.09;75.36
14757;BME280;62446;53.214;10.398;2022-12-18T16:39:26;102534.38;;;-5.88;75.55
14757;BME280;62446;53.214;10.398;2022-12-18T16:42:30;102520.38;;;-5.77;74.65
14757;BME280;62446;53.214;10.398;2022-12-18T16:45:34;102530.84;;;-6.06;75.42
14757;BME280;62446;53.214;10.398;2022-12-18T16:48:37;102525.47;;;-6.06;76.02
14757;BME280;62446;53.214;10.398;2022-12-18T16:51:45;102537.50;;;-6.13;75.25
14757;BME280;62446;53.214;10.398;2022-12-18T16:54:50;102533.06;;;-6.14;75.87
14757;BME280;62446;53.214;10.398;2022-12-18T16:57:54;102522.19;;;-6.11;75.73
14757;BME280;62446;53.214;10.398;2022-12-18T17:00:58;102527.28;;;-5.89;74.83
14757;BME280;62446;53.214;10.398;2022-12-18T17:04:05;102531.03;;;-6.09;75.22
14757;BME280;62446;53.214;10.398;2022-12-18T17:07:09;102528.91;;;-6.19;75.49
14757;BME280;62446;53.214;10.398;2022-12-18T17:10:14;102522.31;;;-5.96;75.04
14757;BME280;62446;53.214;10.398;2022-12-18T17:13:18;102520.13;;;-6.06;76.08
14757;BME280;62446;53.214;10.398;2022-12-18T17:16:29;102520.97;;;-6.05;74.71
14757;BME280;62446;53.214;10.398;2022-12-18T17:19:34;102503.47;;;-6.12;75.63
14757;BME280;62446;53.214;10.398;2022-12-18T17:22:38;102502.91;;;-6.19;76.25
14757;BME280;62446;53.214;10.398;2022-12-18T17:25:44;102497.03;;;-6.10;76.07
14757;BME280;62446;53.214;10.398;2022-12-18T17:28:47;102479.03;;;-6.08;76.03
14757;BME280;62446;53.214;10.398;2022-12-18T17:31:51;102494.38;;;-6.27;75.60
14757;BME280;62446;53.214;10.398;2022-12-18T17:34:55;102501.56;;;-6.10;74.89
14757;BME280;62446;53.214;10.398;2022-12-18T17:38:06;102487.78;;;-6.04;75.05
14757;BME280;62446;53.214;10.398;2022-12-18T17:41:12;102495.00;;;-6.05;74.73
14757;BME280;62446;53.214;10.398;2022-12-18T17:44:17;102491.03;;;-5.97;75.47
14757;BME280;62446;53.214;10.398;2022-12-18T17:47:21;102499.47;;;-6.05;74.21
14757;BME280;62446;53.214;10.398;2022-12-18T17:50:25;102498.25;;;-5.82;74.61
14757;BME280;62446;53.214;10.398;2022-12-18T17:53:29;102492.75;;;-5.96;74.22
14757;BME280;62446;53.214;10.398;2022-12-18T17:56:34;102487.03;;;-5.73;72.89
14757;BME280;62446;53.214;10.398;2022-12-18T17:59:39;102495.91;;;-5.88;72.63
14757;BME280;62446;53.214;10.398;2022-12-18T18:02:42;102493.47;;;-5.93;73.56
14757;BME280;62446;53.214;10.398;2022-12-18T18:05:46;102480.28;;;-5.97;74.23
14757;BME280;62446;53.214;10.398;2022-12-18T18:08:50;102472.09;;;-6.12;74.57
14757;BME280;62446;53.214;10.398;2022-12-18T18:11:57;102465.16;;;-6.16;74.06
14757;BME280;62446;53.214;10.398;2022-12-18T18:15:19;102445.16;;;-6.10;74.07
14757;BME280;62446;53.214;10.398;2022-12-18T18:18:23;102435.91;;;-6.05;74.10
14757;BME280;62446;53.214;10.398;2022-12-18T18:21:27;102431.22;;;-6.01;74.29
14757;BME280;62446;53.214;10.398;2022-12-18T18:24:32;102444.44;;;-6.14;74.03
14757;BME280;62446;53.214;10.398;2022-12-18T18:27:38;102429.28;;;-6.15;74.27
14757;BME280;62446;53.214;10.398;2022-12-18T18:30:41;102429.81;;;-6.08;73.24
14757;BME280;62446;53.214;10.398;2022-12-18T18:33:45;102425.00;;;-6.01;73.27
14757;BME280;62446;53.214;10.398;2022-12-18T18:36:49;102427.53;;;-6.16;74.02
14757;BME280;62446;53.214;10.398;2022-12-18T18:39:53;102421.22;;;-6.15;73.96
14757;BME280;62446;53.214;10.398;2022-12-18T18:42:59;102411.78;;;-6.22;73.99
14757;BME280;62446;53.214;10.398;2022-12-18T18:46:05;102410.56;;;-6.16;73.90
14757;BME280;62446;53.214;10.398;2022-12-18T18:49:09;102402.09;;;-6.09;73.63
14757;BME280;62446;53.214;10.398;2022-12-18T18:52:13;102407.13;;;-6.03;74.23
14757;BME280;62446;53.214;10.398;2022-12-18T18:55:17;102400.25;;;-6.08;73.98
14757;BME280;62446;53.214;10.398;2022-12-18T18:58:29;102392.75;;;-6.01;73.75
14757;BME280;62446;53.214;10.398;2022-12-18T19:01:32;102397.75;;;-6.11;73.36
14757;BME280;62446;53.214;10.398;2022-12-18T19:04:36;102385.97;;;-6.09;73.18
14757;BME280;62446;53.214;10.398;2022-12-18T19:07:47;102394.16;;;-5.94;73.18
14757;BME280;62446;53.214;10.398;2022-12-18T19:10:51;102400.03;;;-6.04;73.21
14757;BME280;62446;53.214;10.398;2022-12-18T19:14:02;102381.13;;;-5.86;71.96
14757;BME280;62446;53.214;10.398;2022-12-18T19:17:06;102369.16;;;-5.96;72.94
14757;BME280;62446;53.214;10.398;2022-12-18T19:20:10;102384.75;;;-6.19;74.05
14757;BME280;62446;53.214;10.398;2022-12-18T19:23:14;102380.94;;;-6.15;73.65
14757;BME280;62446;53.214;10.398;2022-12-18T19:26:19;102349.16;;;-6.07;73.24
14757;BME280;62446;53.214;10.398;2022-12-18T19:29:32;102349.41;;;-5.95;73.61
14757;BME280;62446;53.214;10.398;2022-12-18T19:32:38;102349.25;;;-5.92;72.47
14757;BME280;62446;53.214;10.398;2022-12-18T19:35:41;102343.38;;;-5.99;72.71
14757;BME280;62446;53.214;10.398;2022-12-18T19:38:46;102343.53;;;-5.86;72.66
14757;BME280;62446;53.214;10.398;2022-12-18T19:41:50;102345.97;;;-5.97;73.68
14757;BME280;62446;53.214;10.398;2022-12-18T19:44:57;102339.03;;;-6.01;72.97
14757;BME280;62446;53.214;10.398;2022-12-18T19:48:00;102336.00;;;-5.95;73.01
14757;BME280;62446;53.214;10.398;2022-12-18T19:51:07;102350.63;;;-6.01;72.70
14757;BME280;62446;53.214;10.398;2022-12-18T19:54:12;102331.91;;;-6.03;73.17
14757;BME280;62446;53.214;10.398;2022-12-18T19:57:19;102322.22;;;-6.21;73.62
14757;BME280;62446;53.214;10.398;2022-12-18T20:00:24;102331.41;;;-6.09;73.82
14757;BME280;62446;53.214;10.398;2022-12-18T20:03:28;102333.97;;;-6.24;73.34
14757;BME280;62446;53.214;10.398;2022-12-18T20:06:35;102323.94;;;-5.88;73.43
14757;BME280;62446;53.214;10.398;2022-12-18T20:09:47;102325.56;;;-6.17;73.94
14757;BME280;62446;53.214;10.398;2022-12-18T20:13:02;102327.06;;;-6.12;73.83
14757;BME280;62446;53.214;10.398;2022-12-18T20:16:09;102298.81;;;-6.19;74.24
14757;BME280;62446;53.214;10.398;2022-12-18T20:19:13;102297.25;;;-5.91;74.01
14757;BME280;62446;53.214;10.398;2022-12-18T20:22:17;102283.28;;;-6.14;75.00
14757;BME280;62446;53.214;10.398;2022-12-18T20:25:21;102291.53;;;-6.01;74.38
14757;BME280;62446;53.214;10.398;2022-12-18T20:28:25;102279.56;;;-5.95;74.07
14757;BME280;62446;53.214;10.398;2022-12-18T20:31:30;102281.13;;;-5.91;73.74
14757;BME280;62446;53.214;10.398;2022-12-18T20:34:34;102275.75;;;-5.91;72.98
14757;BME280;62446;53.214;10.398;2022-12-18T20:37:38;102260.06;;;-5.83;74.09
14757;BME280;62446;53.214;10.398;2022-12-18T20:40:50;102280.50;;;-5.96;72.91
14757;BME280;62446;53.214;10.398;2022-12-18T20:43:53;102269.72;;;-6.11;73.43
14757;BME280;62446;53.214;10.398;2022-12-18T20:46:59;102256.84;;;-5.74;73.13
14757;BME280;62446;53.214;10.398;2022-12-18T20:50:10;102259.44;;;-5.72;72.54
14757;BME280;62446;53.214;10.398;2022-12-18T20:53:13;102242.94;;;-5.66;72.77
14757;BME280;62446;53.214;10.398;2022-12-18T20:56:20;102245.44;;;-5.93;74.20
14757;BME280;62446;53.214;10.398;2022-12-18T20:59:24;102252.50;;;-5.76;73.69
14757;BME280;62446;53.214;10.398;2022-12-18T21:02:29;102234.50;;;-5.74;73.24
14757;BME280;62446;53.214;10.398;2022-12-18T21:05:33;102231.34;;;-5.66;72.56
14757;BME280;62446;53.214;10.398;2022-12-18T21:08:39;102223.41;;;-5.84;74.38
14757;BME280;62446;53.214;10.398;2022-12-18T21:11:42;102230.63;;;-6.00;75.10
14757;BME280;62446;53.214;10.398;2022-12-18T21:15:06;102225.84;;;-5.95;74.76
14757;BME280;62446;53.214;10.398;2022-12-18T21:18:12;102202.97;;;-6.03;74.72
14757;BME280;62446;53.214;10.398;2022-12-18T21:21:16;102183.88;;;-5.82;74.51
14757;BME280;62446;53.214;10.398;2022-12-18T21:24:27;102167.59;;;-5.95;74.40
14757;BME280;62446;53.214;10.398;2022-12-18T21:27:34;102151.53;;;-6.11;74.91
14757;BME280;62446;53.214;10.398;2022-12-18T21:30:38;102142.00;;;-6.00;74.79
14757;BME280;62446;53.214;10.398;2022-12-18T21:33:43;102129.69;;;-6.05;74.43
14757;BME280;62446;53.214;10.398;2022-12-18T21:36:49;102118.75;;;-6.01;74.22
14757;BME280;62446;53.214;10.398;2022-12-18T21:39:53;102162.69;;;-6.03;74.01
14757;BME280;62446;53.214;10.398;2022-12-18T21:42:57;102160.47;;;-5.80;73.97
